CDT,Max TemperatureF,Mean TemperatureF,Min TemperatureF,Max Dew PointF,MeanDew PointF,Min DewpointF,Max Humidity, Mean Humidity, Min Humidity, Max Sea Level PressureIn, Mean Sea Level PressureIn, Min Sea Level PressureIn, Max VisibilityMiles, Mean VisibilityMiles, Min VisibilityMiles, Max Wind SpeedMPH, Mean Wind SpeedMPH, Max Gust SpeedMPH,PrecipitationIn, CloudCover, Events, WindDirDegrees
2013-10-1,82,67,52,53,45,32,88,54,17,29.98,29.89,29.79,10,10,10,13,6,17,0.00,0,,37
2013-10-2,84,68,52,60,51,37,85,56,29,30.03,29.95,29.86,10,10,7,15,5,22,0.00,3,,146
2013-10-3,80,71,62,64,58,52,91,69,38,29.86,29.81,29.76,10,8,2,9,5,16,0.00,3,,167
2013-10-4,76,69,62,68,63,58,93,83,66,29.90,29.80,29.71,10,9,2,36,9,28,1.28,5,Rain,129
2013-10-5,66,54,43,57,36,31,74,55,39,29.93,29.86,29.78,10,10,10,21,10,28,0.00,4,,242
2013-10-6,51,46,41,47,41,33,90,81,59,29.93,29.80,29.74,10,9,2,17,8,24,0.02,8,Rain,287
2013-10-7,74,57,40,44,37,30,90,58,20,30.04,30.00,29.93,10,10,10,15,8,22,0.00,0,,256
2013-10-8,78,62,45,45,41,34,84,54,20,30.04,30.01,29.96,10,10,10,24,9,32,0.00,0,,176
2013-10-9,76,62,47,48,45,40,90,62,27,30.09,30.05,30.01,10,10,10,16,8,23,0.00,0,,153
2013-10-10,78,61,44,50,45,39,90,61,26,30.06,29.99,29.88,10,10,7,16,7,24,0.00,0,,145
2013-10-11,72,63,54,59,54,46,84,71,60,29.89,29.79,29.71,10,10,10,23,11,30,0.00,2,,166
2013-10-12,66,53,40,46,35,23,86,54,20,30.26,30.07,29.86,10,10,10,17,9,28,0.00,0,,281
2013-10-13,66,49,32,35,31,26,92,57,23,30.45,30.37,30.27,10,8,1,9,5,,0.00,0,,73
2013-10-14,65,52,38,49,36,30,85,56,29,30.34,30.12,29.82,10,6,0,25,10,30,0.21,4,Rain,125
2013-10-15,59,52,46,56,43,38,91,76,60,29.96,29.86,29.76,10,10,4,25,13,33,0.10,8,Rain,251
2013-10-16,50,43,36,42,39,34,93,77,55,30.03,29.98,29.96,10,10,3,13,9,24,0.00,6,,280
2013-10-17,63,48,33,41,35,26,95,68,25,29.98,29.90,29.83,10,9,5,16,5,25,0.00,1,,258
2013-10-18,51,44,36,36,31,22,90,64,33,30.08,30.01,29.96,10,10,10,14,9,18,0.00,3,,287
2013-10-19,58,45,32,35,30,24,92,61,28,29.96,29.86,29.79,10,10,10,16,7,30,0.00,5,,259
2013-10-20,64,51,38,38,35,32,79,59,30,29.96,29.78,29.72,10,10,10,18,8,28,0.00,5,,280
2013-10-21,50,41,32,34,28,20,86,61,30,30.08,30.01,29.97,10,10,7,17,9,25,0.00,6,,286
2013-10-22,43,40,36,39,34,28,93,80,65,30.09,29.97,29.86,10,9,2,15,7,18,0.01,8,Rain,1
2013-10-23,40,36,31,36,32,28,93,84,61,30.17,30.10,30.07,10,10,4,12,6,,0.01,7,Rain,288
2013-10-24,47,38,30,32,28,24,88,71,42,30.37,30.29,30.17,10,10,10,16,8,21,0.00,4,,307
2013-10-25,56,40,24,31,26,22,90,60,31,30.39,30.25,30.03,10,10,10,21,8,31,0.00,1,,220
2013-10-26,52,41,30,33,27,21,82,54,30,30.17,30.09,29.96,10,10,10,22,12,29,0.00,0,,300
2013-10-27,65,44,23,33,27,21,91,62,24,30.12,29.97,29.84,10,10,10,17,7,23,0.00,0,,200
2013-10-28,54,44,33,35,33,30,88,67,47,30.28,30.18,29.99,10,10,10,17,9,23,0.00,0,,53
2013-10-29,55,48,40,48,39,32,85,73,63,30.26,30.11,30.00,10,10,7,18,11,24,0.00,7,Rain,107
2013-10-30,65,58,51,57,52,49,93,88,69,30.00,29.85,29.69,10,4,0,22,10,31,0.37,7,Fog-Rain,122
2013-10-31,51,46,40,48,39,36,92,83,63,29.70,29.57,29.47,10,8,2,16,10,22,0.00,6,,293